sensor_id;sensor_type;location;lat;lon;timestamp;temperature;humidity
420;DHT22;42600;54.408;13.016;2022-09-29T00:02:16;10.00;92.70
420;DHT22;42600;54.408;13.016;2022-09-29T00:04:43;9.90;92.70
420;DHT22;42600;54.408;13.016;2022-09-29T00:07:09;9.90;92.70
420;DHT22;42600;54.408;13.016;2022-09-29T00:09:36;9.90;92.70
420;DHT22;42600;54.408;13.016;2022-09-29T00:12:04;9.90;92.70
420;DHT22;42600;54.408;13.016;2022-09-29T00:14:31;9.90;92.70
420;DHT22;42600;54.408;13.016;2022-09-29T00:16:57;9.90;92.70
420;DHT22;42600;54.408;13.016;2022-09-29T00:19:24;9.80;92.70
420;DHT22;42600;54.408;13.016;2022-09-29T00:21:53;9.90;92.70
420;DHT22;42600;54.408;13.016;2022-09-29T00:24:19;9.90;92.70
420;DHT22;42600;54.408;13.016;2022-09-29T00:26:46;9.90;92.70
420;DHT22;42600;54.408;13.016;2022-09-29T00:29:14;9.90;92.70
420;DHT22;42600;54.408;13.016;2022-09-29T00:31:40;9.80;92.70
420;DHT22;42600;54.408;13.016;2022-09-29T00:34:07;9.90;92.70
420;DHT22;42600;54.408;13.016;2022-09-29T00:36:33;9.80;92.70
420;DHT22;42600;54.408;13.016;2022-09-29T00:39:00;9.90;92.70
420;DHT22;42600;54.408;13.016;2022-09-29T00:41:29;9.90;92.70
420;DHT22;42600;54.408;13.016;2022-09-29T00:43:58;9.80;92.70
420;DHT22;42600;54.408;13.016;2022-09-29T00:46:36;9.80;92.70
420;DHT22;42600;54.408;13.016;2022-09-29T00:49:07;9.80;92.70
420;DHT22;42600;54.408;13.016;2022-09-29T00:51:36;9.80;92.70
420;DHT22;42600;54.408;13.016;2022-09-29T00:54:06;9.80;92.70
420;DHT22;42600;54.408;13.016;2022-09-29T00:56:34;9.80;92.70
420;DHT22;42600;54.408;13.016;2022-09-29T00:59:05;9.80;92.70
420;DHT22;42600;54.408;13.016;2022-09-29T01:01:34;9.80;92.70
420;DHT22;42600;54.408;13.016;2022-09-29T01:04:03;9.80;92.70
420;DHT22;42600;54.408;13.016;2022-09-29T01:06:33;9.80;92.70
420;DHT22;42600;54.408;13.016;2022-09-29T01:09:02;9.70;92.70
420;DHT22;42600;54.408;13.016;2022-09-29T01:11:30;9.70;92.70
420;DHT22;42600;54.408;13.016;2022-09-29T01:13:59;9.60;92.70
420;DHT22;42600;54.408;13.016;2022-09-29T01:16:28;9.60;92.70
420;DHT22;42600;54.408;13.016;2022-09-29T01:18:57;9.60;92.70
420;DHT22;42600;54.408;13.016;2022-09-29T01:21:31;9.60;92.70
420;DHT22;42600;54.408;13.016;2022-09-29T01:24:14;9.50;92.70
420;DHT22;42600;54.408;13.016;2022-09-29T01:27:13;9.50;92.70
420;DHT22;42600;54.408;13.016;2022-09-29T01:32:46;9.50;92.70
420;DHT22;42600;54.408;13.016;2022-09-29T01:35:23;9.50;92.70
420;DHT22;42600;54.408;13.016;2022-09-29T01:38:01;9.40;92.70
420;DHT22;42600;54.408;13.016;2022-09-29T01:40:37;9.40;92.70
420;DHT22;42600;54.408;13.016;2022-09-29T01:43:08;9.40;92.70
420;DHT22;42600;54.408;13.016;2022-09-29T01:45:39;9.50;92.70
420;DHT22;42600;54.408;13.016;2022-09-29T01:48:12;9.40;92.70
420;DHT22;42600;54.408;13.016;2022-09-29T01:50:45;9.40;92.70
420;DHT22;42600;54.408;13.016;2022-09-29T01:53:15;9.40;92.70
420;DHT22;42600;54.408;13.016;2022-09-29T01:55:45;9.40;92.70
420;DHT22;42600;54.408;13.016;2022-09-29T01:58:16;9.40;92.70
420;DHT22;42600;54.408;13.016;2022-09-29T02:00:48;9.40;92.70
420;DHT22;42600;54.408;13.016;2022-09-29T02:03:19;9.40;92.70
420;DHT22;42600;54.408;13.016;2022-09-29T02:05:50;9.40;92.70
420;DHT22;42600;54.408;13.016;2022-09-29T02:08:23;9.40;92.70
420;DHT22;42600;54.408;13.016;2022-09-29T02:10:54;9.40;92.70
420;DHT22;42600;54.408;13.016;2022-09-29T02:13:25;9.40;92.70
420;DHT22;42600;54.408;13.016;2022-09-29T02:15:54;9.40;92.70
420;DHT22;42600;54.408;13.016;2022-09-29T02:18:27;9.40;92.70
420;DHT22;42600;54.408;13.016;2022-09-29T02:20:55;9.40;92.70
420;DHT22;42600;54.408;13.016;2022-09-29T02:23:22;9.30;92.70
420;DHT22;42600;54.408;13.016;2022-09-29T02:25:49;9.30;92.70
420;DHT22;42600;54.408;13.016;2022-09-29T02:28:16;9.20;92.70
420;DHT22;42600;54.408;13.016;2022-09-29T02:30:43;9.20;92.70
420;DHT22;42600;54.408;13.016;2022-09-29T02:33:18;9.30;92.70
420;DHT22;42600;54.408;13.016;2022-09-29T02:35:53;9.20;92.70
420;DHT22;42600;54.408;13.016;2022-09-29T02:38:28;9.20;92.70
420;DHT22;42600;54.408;13.016;2022-09-29T02:41:01;9.10;92.70
420;DHT22;42600;54.408;13.016;2022-09-29T02:43:43;9.10;92.70
420;DHT22;42600;54.408;13.016;2022-09-29T02:46:22;9.10;92.70
420;DHT22;42600;54.408;13.016;2022-09-29T02:49:02;9.00;92.70
420;DHT22;42600;54.408;13.016;2022-09-29T02:51:36;9.00;92.70
420;DHT22;42600;54.408;13.016;2022-09-29T02:54:13;9.00;92.70
420;DHT22;42600;54.408;13.016;2022-09-29T02:56:48;9.00;92.70
420;DHT22;42600;54.408;13.016;2022-09-29T02:59:19;9.00;92.70
420;DHT22;42600;54.408;13.016;2022-09-29T03:01:51;8.90;92.70
420;DHT22;42600;54.408;13.016;2022-09-29T03:04:20;8.90;92.70
420;DHT22;42600;54.408;13.016;2022-09-29T03:06:48;8.90;92.70
420;DHT22;42600;54.408;13.016;2022-09-29T03:09:15;8.90;92.70
420;DHT22;42600;54.408;13.016;2022-09-29T03:11:42;8.80;92.70
420;DHT22;42600;54.408;13.016;2022-09-29T03:14:08;8.70;92.70
420;DHT22;42600;54.408;13.016;2022-09-29T03:16:35;8.70;92.70
420;DHT22;42600;54.408;13.016;2022-09-29T03:19:02;8.70;92.70
420;DHT22;42600;54.408;13.016;2022-09-29T03:21:29;8.80;92.70
420;DHT22;42600;54.408;13.016;2022-09-29T03:23:57;8.70;92.70
420;DHT22;42600;54.408;13.016;2022-09-29T03:26:24;8.60;92.70
420;DHT22;42600;54.408;13.016;2022-09-29T03:28:51;8.60;92.70
420;DHT22;42600;54.408;13.016;2022-09-29T03:31:18;8.70;92.70
420;DHT22;42600;54.408;13.016;2022-09-29T03:33:45;8.70;92.70
420;DHT22;42600;54.408;13.016;2022-09-29T03:36:12;8.70;92.70
420;DHT22;42600;54.408;13.016;2022-09-29T03:38:39;8.70;92.70
420;DHT22;42600;54.408;13.016;2022-09-29T03:41:06;8.70;92.70
420;DHT22;42600;54.408;13.016;2022-09-29T03:43:33;8.60;92.70
420;DHT22;42600;54.408;13.016;2022-09-29T03:46:00;8.60;92.70
420;DHT22;42600;54.408;13.016;2022-09-29T03:48:26;8.60;92.70
420;DHT22;42600;54.408;13.016;2022-09-29T03:50:56;8.60;92.70
420;DHT22;42600;54.408;13.016;2022-09-29T03:53:22;8.60;92.70
420;DHT22;42600;54.408;13.016;2022-09-29T03:55:49;8.60;92.70
420;DHT22;42600;54.408;13.016;2022-09-29T03:58:17;8.50;92.70
420;DHT22;42600;54.408;13.016;2022-09-29T04:00:44;8.60;92.70
420;DHT22;42600;54.408;13.016;2022-09-29T04:03:12;8.60;92.70
420;DHT22;42600;54.408;13.016;2022-09-29T04:05:39;8.50;92.70
420;DHT22;42600;54.408;13.016;2022-09-29T04:08:05;8.40;92.70
420;DHT22;42600;54.408;13.016;2022-09-29T04:10:33;8.40;92.70
420;DHT22;42600;54.408;13.016;2022-09-29T04:12:59;8.40;92.70
420;DHT22;42600;54.408;13.016;2022-09-29T04:15:27;8.40;92.70
420;DHT22;42600;54.408;13.016;2022-09-29T04:17:54;8.40;92.70
420;DHT22;42600;54.408;13.016;2022-09-29T04:20:21;8.40;92.70
420;DHT22;42600;54.408;13.016;2022-09-29T04:22:47;8.40;92.70
420;DHT22;42600;54.408;13.016;2022-09-29T04:25:14;8.30;92.70
420;DHT22;42600;54.408;13.016;2022-09-29T04:27:40;8.30;92.70
420;DHT22;42600;54.408;13.016;2022-09-29T04:30:08;8.30;92.70
420;DHT22;42600;54.408;13.016;2022-09-29T04:32:36;8.30;92.70
420;DHT22;42600;54.408;13.016;2022-09-29T04:35:03;8.30;92.70
420;DHT22;42600;54.408;13.016;2022-09-29T04:37:30;8.30;92.70
420;DHT22;42600;54.408;13.016;2022-09-29T04:39:57;8.30;92.70
420;DHT22;42600;54.408;13.016;2022-09-29T04:42:23;8.30;92.70
420;DHT22;42600;54.408;13.016;2022-09-29T04:44:50;8.30;92.70
420;DHT22;42600;54.408;13.016;2022-09-29T04:47:16;8.30;92.70
420;DHT22;42600;54.408;13.016;2022-09-29T04:49:44;8.30;92.70
420;DHT22;42600;54.408;13.016;2022-09-29T04:52:11;8.30;92.70
420;DHT22;42600;54.408;13.016;2022-09-29T04:54:38;8.30;92.70
420;DHT22;42600;54.408;13.016;2022-09-29T04:57:04;8.40;92.70
420;DHT22;42600;54.408;13.016;2022-09-29T04:59:31;8.40;92.70
420;DHT22;42600;54.408;13.016;2022-09-29T05:01:58;8.40;92.70
420;DHT22;42600;54.408;13.016;2022-09-29T05:04:25;8.40;92.70
420;DHT22;42600;54.408;13.016;2022-09-29T05:06:52;8.30;92.70
420;DHT22;42600;54.408;13.016;2022-09-29T05:09:19;8.30;92.70
420;DHT22;42600;54.408;13.016;2022-09-29T05:11:45;8.30;92.70
420;DHT22;42600;54.408;13.016;2022-09-29T05:14:12;8.30;92.70
420;DHT22;42600;54.408;13.016;2022-09-29T05:16:38;8.30;92.70
420;DHT22;42600;54.408;13.016;2022-09-29T05:19:05;8.40;92.70
420;DHT22;42600;54.408;13.016;2022-09-29T05:21:32;8.40;92.70
420;DHT22;42600;54.408;13.016;2022-09-29T05:24:00;8.40;92.70
420;DHT22;42600;54.408;13.016;2022-09-29T05:26:26;8.40;92.70
420;DHT22;42600;54.408;13.016;2022-09-29T05:28:53;8.40;92.70
420;DHT22;42600;54.408;13.016;2022-09-29T05:31:20;8.40;92.70
420;DHT22;42600;54.408;13.016;2022-09-29T05:33:46;8.40;92.70
420;DHT22;42600;54.408;13.016;2022-09-29T05:36:13;8.50;92.70
420;DHT22;42600;54.408;13.016;2022-09-29T05:38:40;8.50;92.70
420;DHT22;42600;54.408;13.016;2022-09-29T05:41:09;8.50;92.70
420;DHT22;42600;54.408;13.016;2022-09-29T05:43:37;8.50;92.70
420;DHT22;42600;54.408;13.016;2022-09-29T05:46:05;8.50;92.70
420;DHT22;42600;54.408;13.016;2022-09-29T05:48:32;8.50;92.70
420;DHT22;42600;54.408;13.016;2022-09-29T05:51:06;8.50;92.70
420;DHT22;42600;54.408;13.016;2022-09-29T05:53:32;8.50;92.70
420;DHT22;42600;54.408;13.016;2022-09-29T05:56:03;8.60;92.70
420;DHT22;42600;54.408;13.016;2022-09-29T05:58:31;8.60;92.70
420;DHT22;42600;54.408;13.016;2022-09-29T06:00:58;8.60;92.70
420;DHT22;42600;54.408;13.016;2022-09-29T06:03:24;8.60;92.70
420;DHT22;42600;54.408;13.016;2022-09-29T06:05:51;8.60;92.70
420;DHT22;42600;54.408;13.016;2022-09-29T06:08:17;8.60;92.70
420;DHT22;42600;54.408;13.016;2022-09-29T06:10:44;8.70;92.70
420;DHT22;42600;54.408;13.016;2022-09-29T06:13:10;8.70;92.70
420;DHT22;42600;54.408;13.016;2022-09-29T06:15:38;8.70;92.70
420;DHT22;42600;54.408;13.016;2022-09-29T06:18:05;8.80;92.70
420;DHT22;42600;54.408;13.016;2022-09-29T06:20:31;8.80;92.70
420;DHT22;42600;54.408;13.016;2022-09-29T06:23:02;8.80;92.70
420;DHT22;42600;54.408;13.016;2022-09-29T06:25:29;8.90;92.70
420;DHT22;42600;54.408;13.016;2022-09-29T06:27:55;9.00;92.70
420;DHT22;42600;54.408;13.016;2022-09-29T06:30:22;9.10;92.70
420;DHT22;42600;54.408;13.016;2022-09-29T06:32:49;9.10;92.70
420;DHT22;42600;54.408;13.016;2022-09-29T06:35:16;9.20;92.70
420;DHT22;42600;54.408;13.016;2022-09-29T06:38:00;9.30;92.70
420;DHT22;42600;54.408;13.016;2022-09-29T06:40:27;9.40;92.70
420;DHT22;42600;54.408;13.016;2022-09-29T06:42:54;9.50;92.70
420;DHT22;42600;54.408;13.016;2022-09-29T06:45:20;9.60;92.70
420;DHT22;42600;54.408;13.016;2022-09-29T06:47:47;9.60;92.70
420;DHT22;42600;54.408;13.016;2022-09-29T06:50:15;9.70;92.70
420;DHT22;42600;54.408;13.016;2022-09-29T06:52:41;9.80;92.70
420;DHT22;42600;54.408;13.016;2022-09-29T06:55:08;9.80;92.70
420;DHT22;42600;54.408;13.016;2022-09-29T06:57:35;9.90;92.70
420;DHT22;42600;54.408;13.016;2022-09-29T07:00:03;9.90;92.70
420;DHT22;42600;54.408;13.016;2022-09-29T07:02:31;10.00;92.70
420;DHT22;42600;54.408;13.016;2022-09-29T07:04:57;10.10;92.70
420;DHT22;42600;54.408;13.016;2022-09-29T07:07:25;10.20;92.70
420;DHT22;42600;54.408;13.016;2022-09-29T07:09:52;10.20;92.70
420;DHT22;42600;54.408;13.016;2022-09-29T07:12:18;10.30;92.70
420;DHT22;42600;54.408;13.016;2022-09-29T07:14:45;10.30;92.70
420;DHT22;42600;54.408;13.016;2022-09-29T07:17:11;10.40;92.70
420;DHT22;42600;54.408;13.016;2022-09-29T07:19:39;10.50;92.70
420;DHT22;42600;54.408;13.016;2022-09-29T07:22:05;10.60;92.70
420;DHT22;42600;54.408;13.016;2022-09-29T07:24:35;10.70;92.70
420;DHT22;42600;54.408;13.016;2022-09-29T07:27:01;10.70;92.70
420;DHT22;42600;54.408;13.016;2022-09-29T07:29:28;10.80;92.70
420;DHT22;42600;54.408;13.016;2022-09-29T07:31:57;10.80;92.70
420;DHT22;42600;54.408;13.016;2022-09-29T07:34:24;10.90;92.70
420;DHT22;42600;54.408;13.016;2022-09-29T07:36:50;11.00;92.70
420;DHT22;42600;54.408;13.016;2022-09-29T07:39:19;11.10;92.70
420;DHT22;42600;54.408;13.016;2022-09-29T07:41:48;11.10;92.70
420;DHT22;42600;54.408;13.016;2022-09-29T07:44:16;11.20;92.70
420;DHT22;42600;54.408;13.016;2022-09-29T07:46:42;11.20;92.70
420;DHT22;42600;54.408;13.016;2022-09-29T07:49:09;11.40;92.70
420;DHT22;42600;54.408;13.016;2022-09-29T07:51:36;11.50;92.70
420;DHT22;42600;54.408;13.016;2022-09-29T07:54:02;11.60;92.70
420;DHT22;42600;54.408;13.016;2022-09-29T07:56:29;11.60;92.70
420;DHT22;42600;54.408;13.016;2022-09-29T07:58:58;11.60;92.70
420;DHT22;42600;54.408;13.016;2022-09-29T08:01:26;11.70;92.70
420;DHT22;42600;54.408;13.016;2022-09-29T08:03:54;11.80;92.70
420;DHT22;42600;54.408;13.016;2022-09-29T08:06:22;11.90;92.70
420;DHT22;42600;54.408;13.016;2022-09-29T08:08:49;12.00;92.70
420;DHT22;42600;54.408;13.016;2022-09-29T08:11:18;12.10;92.70
420;DHT22;42600;54.408;13.016;2022-09-29T08:13:45;12.10;92.70
420;DHT22;42600;54.408;13.016;2022-09-29T08:16:14;12.20;92.70
420;DHT22;42600;54.408;13.016;2022-09-29T08:18:42;12.30;92.70
420;DHT22;42600;54.408;13.016;2022-09-29T08:21:10;12.30;92.70
420;DHT22;42600;54.408;13.016;2022-09-29T08:23:38;12.30;92.70
420;DHT22;42600;54.408;13.016;2022-09-29T08:26:07;12.50;92.70
420;DHT22;42600;54.408;13.016;2022-09-29T08:28:35;12.50;92.70
420;DHT22;42600;54.408;13.016;2022-09-29T08:31:03;12.50;92.70
420;DHT22;42600;54.408;13.016;2022-09-29T08:33:31;12.60;92.70
420;DHT22;42600;54.408;13.016;2022-09-29T08:35:59;12.70;92.70
420;DHT22;42600;54.408;13.016;2022-09-29T08:38:26;12.80;92.70
420;DHT22;42600;54.408;13.016;2022-09-29T08:40:53;12.80;92.70
420;DHT22;42600;54.408;13.016;2022-09-29T08:43:24;12.90;92.70
420;DHT22;42600;54.408;13.016;2022-09-29T08:45:57;13.00;92.70
420;DHT22;42600;54.408;13.016;2022-09-29T08:48:28;13.00;92.50
420;DHT22;42600;54.408;13.016;2022-09-29T08:50:58;13.10;92.60
420;DHT22;42600;54.408;13.016;2022-09-29T08:53:30;13.20;91.70
420;DHT22;42600;54.408;13.016;2022-09-29T08:56:00;13.40;92.30
420;DHT22;42600;54.408;13.016;2022-09-29T08:58:27;13.40;92.10
420;DHT22;42600;54.408;13.016;2022-09-29T09:01:05;13.50;92.00
420;DHT22;42600;54.408;13.016;2022-09-29T09:03:50;13.50;91.50
420;DHT22;42600;54.408;13.016;2022-09-29T09:06:31;13.60;91.40
420;DHT22;42600;54.408;13.016;2022-09-29T09:09:15;13.70;91.10
420;DHT22;42600;54.408;13.016;2022-09-29T09:11:55;13.80;91.50
420;DHT22;42600;54.408;13.016;2022-09-29T09:14:38;13.90;90.90
420;DHT22;42600;54.408;13.016;2022-09-29T09:17:19;13.90;90.30
420;DHT22;42600;54.408;13.016;2022-09-29T09:20:00;13.90;89.10
420;DHT22;42600;54.408;13.016;2022-09-29T09:22:35;14.00;90.10
420;DHT22;42600;54.408;13.016;2022-09-29T09:25:13;14.00;89.60
420;DHT22;42600;54.408;13.016;2022-09-29T09:27:48;14.10;89.30
420;DHT22;42600;54.408;13.016;2022-09-29T09:30:18;14.20;89.30
420;DHT22;42600;54.408;13.016;2022-09-29T09:32:48;14.20;89.20
420;DHT22;42600;54.408;13.016;2022-09-29T09:35:30;14.30;89.10
420;DHT22;42600;54.408;13.016;2022-09-29T09:38:03;14.40;88.90
420;DHT22;42600;54.408;13.016;2022-09-29T09:40:38;14.50;88.70
420;DHT22;42600;54.408;13.016;2022-09-29T09:43:09;14.50;88.30
420;DHT22;42600;54.408;13.016;2022-09-29T09:45:41;14.60;87.80
420;DHT22;42600;54.408;13.016;2022-09-29T09:48:14;14.60;88.40
420;DHT22;42600;54.408;13.016;2022-09-29T09:50:42;14.70;88.60
420;DHT22;42600;54.408;13.016;2022-09-29T09:53:18;14.80;87.50
420;DHT22;42600;54.408;13.016;2022-09-29T09:55:52;14.80;87.10
420;DHT22;42600;54.408;13.016;2022-09-29T09:59:01;14.80;86.80
420;DHT22;42600;54.408;13.016;2022-09-29T10:01:31;14.90;87.70
420;DHT22;42600;54.408;13.016;2022-09-29T10:03:58;15.00;87.30
420;DHT22;42600;54.408;13.016;2022-09-29T10:06:25;15.00;86.40
420;DHT22;42600;54.408;13.016;2022-09-29T10:08:53;15.10;86.20
420;DHT22;42600;54.408;13.016;2022-09-29T10:11:22;15.10;85.70
420;DHT22;42600;54.408;13.016;2022-09-29T10:13:56;15.20;86.40
420;DHT22;42600;54.408;13.016;2022-09-29T10:16:27;15.20;86.20
420;DHT22;42600;54.408;13.016;2022-09-29T10:18:56;15.30;85.90
420;DHT22;42600;54.408;13.016;2022-09-29T10:21:34;15.30;86.10
420;DHT22;42600;54.408;13.016;2022-09-29T10:24:03;15.40;84.90
420;DHT22;42600;54.408;13.016;2022-09-29T10:26:37;15.40;85.20
420;DHT22;42600;54.408;13.016;2022-09-29T10:29:18;15.50;85.00
420;DHT22;42600;54.408;13.016;2022-09-29T10:31:58;15.60;84.50
420;DHT22;42600;54.408;13.016;2022-09-29T10:34:27;15.50;84.10
420;DHT22;42600;54.408;13.016;2022-09-29T10:36:56;15.70;84.60
420;DHT22;42600;54.408;13.016;2022-09-29T10:39:37;15.70;83.80
420;DHT22;42600;54.408;13.016;2022-09-29T10:42:19;15.50;83.20
420;DHT22;42600;54.408;13.016;2022-09-29T10:44:50;15.60;83.40
420;DHT22;42600;54.408;13.016;2022-09-29T10:47:19;15.60;84.60
420;DHT22;42600;54.408;13.016;2022-09-29T10:49:46;15.80;85.30
420;DHT22;42600;54.408;13.016;2022-09-29T10:52:21;15.90;83.90
420;DHT22;42600;54.408;13.016;2022-09-29T10:54:56;15.90;84.00
420;DHT22;42600;54.408;13.016;2022-09-29T10:57:25;16.10;83.00
420;DHT22;42600;54.408;13.016;2022-09-29T10:59:53;16.10;83.00
420;DHT22;42600;54.408;13.016;2022-09-29T11:02:24;16.10;81.60
420;DHT22;42600;54.408;13.016;2022-09-29T11:04:52;16.10;82.50
420;DHT22;42600;54.408;13.016;2022-09-29T11:07:21;16.20;82.20
420;DHT22;42600;54.408;13.016;2022-09-29T11:09:47;16.20;82.40
420;DHT22;42600;54.408;13.016;2022-09-29T11:12:31;16.20;81.30
420;DHT22;42600;54.408;13.016;2022-09-29T11:14:59;16.20;81.40
420;DHT22;42600;54.408;13.016;2022-09-29T11:17:27;16.00;81.60
420;DHT22;42600;54.408;13.016;2022-09-29T11:19:58;16.10;82.20
420;DHT22;42600;54.408;13.016;2022-09-29T11:22:39;16.00;82.80
420;DHT22;42600;54.408;13.016;2022-09-29T11:25:19;16.10;82.40
420;DHT22;42600;54.408;13.016;2022-09-29T11:28:01;16.20;81.70
420;DHT22;42600;54.408;13.016;2022-09-29T11:30:38;16.20;82.00
420;DHT22;42600;54.408;13.016;2022-09-29T11:33:16;16.10;80.50
420;DHT22;42600;54.408;13.016;2022-09-29T11:35:53;16.10;80.80
420;DHT22;42600;54.408;13.016;2022-09-29T11:38:34;16.00;82.10
420;DHT22;42600;54.408;13.016;2022-09-29T11:41:13;16.10;81.40
420;DHT22;42600;54.408;13.016;2022-09-29T11:43:45;16.10;81.40
420;DHT22;42600;54.408;13.016;2022-09-29T11:46:28;16.00;82.90
420;DHT22;42600;54.408;13.016;2022-09-29T11:49:08;16.00;81.40
420;DHT22;42600;54.408;13.016;2022-09-29T11:51:49;16.10;82.10
420;DHT22;42600;54.408;13.016;2022-09-29T11:54:33;16.30;81.80
420;DHT22;42600;54.408;13.016;2022-09-29T11:57:06;16.20;78.50
420;DHT22;42600;54.408;13.016;2022-09-29T11:59:54;16.20;81.80
420;DHT22;42600;54.408;13.016;2022-09-29T12:02:38;16.20;81.20
420;DHT22;42600;54.408;13.016;2022-09-29T12:05:16;16.20;78.90
420;DHT22;42600;54.408;13.016;2022-09-29T12:07:53;16.20;76.90
420;DHT22;42600;54.408;13.016;2022-09-29T12:10:44;16.40;81.70
420;DHT22;42600;54.408;13.016;2022-09-29T12:13:19;16.50;80.80
420;DHT22;42600;54.408;13.016;2022-09-29T12:15:53;16.50;80.10
420;DHT22;42600;54.408;13.016;2022-09-29T12:18:25;16.60;81.50
420;DHT22;42600;54.408;13.016;2022-09-29T12:20:54;16.80;79.60
420;DHT22;42600;54.408;13.016;2022-09-29T12:23:23;16.70;78.40
420;DHT22;42600;54.408;13.016;2022-09-29T12:25:56;16.70;80.30
420;DHT22;42600;54.408;13.016;2022-09-29T12:28:27;16.80;78.40
420;DHT22;42600;54.408;13.016;2022-09-29T12:31:00;16.90;76.40
420;DHT22;42600;54.408;13.016;2022-09-29T12:33:32;16.60;73.60
420;DHT22;42600;54.408;13.016;2022-09-29T12:36:10;16.40;75.80
420;DHT22;42600;54.408;13.016;2022-09-29T12:38:55;16.60;75.90
420;DHT22;42600;54.408;13.016;2022-09-29T12:41:29;16.50;81.20
420;DHT22;42600;54.408;13.016;2022-09-29T12:44:03;16.70;78.10
420;DHT22;42600;54.408;13.016;2022-09-29T12:46:36;16.60;74.80
420;DHT22;42600;54.408;13.016;2022-09-29T12:49:13;16.80;80.10
420;DHT22;42600;54.408;13.016;2022-09-29T12:51:44;17.00;77.80
420;DHT22;42600;54.408;13.016;2022-09-29T12:54:16;17.10;77.30
420;DHT22;42600;54.408;13.016;2022-09-29T12:56:47;17.10;76.00
420;DHT22;42600;54.408;13.016;2022-09-29T12:59:26;17.00;77.10
420;DHT22;42600;54.408;13.016;2022-09-29T13:01:56;17.10;75.10
420;DHT22;42600;54.408;13.016;2022-09-29T13:05:02;17.10;77.50
420;DHT22;42600;54.408;13.016;2022-09-29T13:07:54;17.10;77.10
420;DHT22;42600;54.408;13.016;2022-09-29T13:10:55;16.90;75.50
420;DHT22;42600;54.408;13.016;2022-09-29T13:16:31;16.80;76.40
420;DHT22;42600;54.408;13.016;2022-09-29T13:19:23;16.30;73.90
420;DHT22;42600;54.408;13.016;2022-09-29T13:22:14;16.50;80.40
420;DHT22;42600;54.408;13.016;2022-09-29T13:24:50;16.50;76.30
420;DHT22;42600;54.408;13.016;2022-09-29T13:27:25;16.50;77.10
420;DHT22;42600;54.408;13.016;2022-09-29T13:29:59;16.30;74.50
420;DHT22;42600;54.408;13.016;2022-09-29T13:32:27;16.10;75.30
420;DHT22;42600;54.408;13.016;2022-09-29T13:34:58;16.30;78.90
420;DHT22;42600;54.408;13.016;2022-09-29T13:37:30;16.20;77.60
420;DHT22;42600;54.408;13.016;2022-09-29T13:39:59;16.70;82.10
420;DHT22;42600;54.408;13.016;2022-09-29T13:42:39;16.80;80.60
420;DHT22;42600;54.408;13.016;2022-09-29T13:48:00;16.80;76.20
420;DHT22;42600;54.408;13.016;2022-09-29T13:50:42;16.70;79.90
420;DHT22;42600;54.408;13.016;2022-09-29T13:53:26;16.70;81.00
420;DHT22;42600;54.408;13.016;2022-09-29T13:55:55;17.00;80.90
420;DHT22;42600;54.408;13.016;2022-09-29T13:58:22;17.00;79.60
420;DHT22;42600;54.408;13.016;2022-09-29T14:00:50;17.00;79.40
420;DHT22;42600;54.408;13.016;2022-09-29T14:03:25;16.80;74.60
420;DHT22;42600;54.408;13.016;2022-09-29T14:06:04;16.70;80.10
420;DHT22;42600;54.408;13.016;2022-09-29T14:08:36;17.00;77.80
420;DHT22;42600;54.408;13.016;2022-09-29T14:11:14;16.90;78.60
420;DHT22;42600;54.408;13.016;2022-09-29T14:13:48;16.80;79.90
420;DHT22;42600;54.408;13.016;2022-09-29T14:16:29;16.80;79.70
420;DHT22;42600;54.408;13.016;2022-09-29T14:19:01;16.70;80.30
420;DHT22;42600;54.408;13.016;2022-09-29T14:21:52;16.40;81.50
420;DHT22;42600;54.408;13.016;2022-09-29T14:24:44;16.40;83.10
420;DHT22;42600;54.408;13.016;2022-09-29T14:27:38;16.00;80.80
420;DHT22;42600;54.408;13.016;2022-09-29T14:30:15;15.60;82.10
420;DHT22;42600;54.408;13.016;2022-09-29T14:32:48;15.70;83.60
420;DHT22;42600;54.408;13.016;2022-09-29T14:35:22;15.60;83.20
420;DHT22;42600;54.408;13.016;2022-09-29T14:37:59;15.50;83.30
420;DHT22;42600;54.408;13.016;2022-09-29T14:40:26;15.50;83.30
420;DHT22;42600;54.408;13.016;2022-09-29T14:43:10;15.40;83.40
420;DHT22;42600;54.408;13.016;2022-09-29T14:45:48;15.30;84.40
420;DHT22;42600;54.408;13.016;2022-09-29T14:48:40;15.60;84.80
420;DHT22;42600;54.408;13.016;2022-09-29T14:51:29;15.50;83.90
420;DHT22;42600;54.408;13.016;2022-09-29T14:54:24;15.30;85.40
420;DHT22;42600;54.408;13.016;2022-09-29T14:56:59;15.10;86.50
420;DHT22;42600;54.408;13.016;2022-09-29T14:59:42;14.90;87.30
420;DHT22;42600;54.408;13.016;2022-09-29T15:02:20;14.80;87.90
420;DHT22;42600;54.408;13.016;2022-09-29T15:04:47;14.70;90.10
420;DHT22;42600;54.408;13.016;2022-09-29T15:07:16;14.70;90.40
420;DHT22;42600;54.408;13.016;2022-09-29T15:09:46;14.60;90.50
420;DHT22;42600;54.408;13.016;2022-09-29T15:12:14;14.50;90.00
420;DHT22;42600;54.408;13.016;2022-09-29T15:14:41;14.50;90.70
420;DHT22;42600;54.408;13.016;2022-09-29T15:17:14;14.40;90.90
420;DHT22;42600;54.408;13.016;2022-09-29T15:19:47;14.30;91.30
420;DHT22;42600;54.408;13.016;2022-09-29T15:22:47;14.20;91.20
420;DHT22;42600;54.408;13.016;2022-09-29T15:25:25;14.10;92.60
420;DHT22;42600;54.408;13.016;2022-09-29T15:27:55;14.00;91.90
420;DHT22;42600;54.408;13.016;2022-09-29T15:30:23;14.00;92.70
420;DHT22;42600;54.408;13.016;2022-09-29T15:32:52;14.00;92.70
420;DHT22;42600;54.408;13.016;2022-09-29T15:35:21;14.00;92.70
420;DHT22;42600;54.408;13.016;2022-09-29T15:38:15;14.00;92.70
420;DHT22;42600;54.408;13.016;2022-09-29T15:40:43;14.00;92.70
420;DHT22;42600;54.408;13.016;2022-09-29T15:43:21;13.90;92.70
420;DHT22;42600;54.408;13.016;2022-09-29T15:45:55;13.90;92.70
420;DHT22;42600;54.408;13.016;2022-09-29T15:48:24;13.80;92.70
420;DHT22;42600;54.408;13.016;2022-09-29T15:50:51;13.80;92.70
420;DHT22;42600;54.408;13.016;2022-09-29T15:53:20;14.00;92.70
420;DHT22;42600;54.408;13.016;2022-09-29T15:55:50;14.30;92.70
420;DHT22;42600;54.408;13.016;2022-09-29T15:58:35;14.60;92.10
420;DHT22;42600;54.408;13.016;2022-09-29T16:01:03;14.60;91.60
420;DHT22;42600;54.408;13.016;2022-09-29T16:03:36;14.40;91.60
420;DHT22;42600;54.408;13.016;2022-09-29T16:06:17;14.60;91.50
420;DHT22;42600;54.408;13.016;2022-09-29T16:08:49;14.40;89.50
420;DHT22;42600;54.408;13.016;2022-09-29T16:11:22;13.90;91.80
420;DHT22;42600;54.408;13.016;2022-09-29T16:13:52;13.70;92.70
420;DHT22;42600;54.408;13.016;2022-09-29T16:16:26;13.70;92.70
420;DHT22;42600;54.408;13.016;2022-09-29T16:18:58;13.70;92.70
420;DHT22;42600;54.408;13.016;2022-09-29T16:21:32;13.40;92.70
420;DHT22;42600;54.408;13.016;2022-09-29T16:24:05;13.20;92.70
420;DHT22;42600;54.408;13.016;2022-09-29T16:26:36;13.20;92.70
420;DHT22;42600;54.408;13.016;2022-09-29T16:29:26;13.10;92.70
420;DHT22;42600;54.408;13.016;2022-09-29T16:31:53;12.80;92.70